Station Historical Data
Daily Summary for January 25, 2017 Units:  Both    English   Metric
« Previous Day
Next Day »
Daily Weekly Monthly Yearly Custom
  High: Low: Average:
Temperature: 47.0 °F /  8.3 °C 32.0 °F /  0 °C 37.9 °F /  3.3 °C
Dew Point: 41.8 °F /  5.4 °C 27.7 °F /  -2.4 °C 34.1 °F /  1.2 °C
Humidity: 93% 80% 86%
Wind Speed: 16.0mph /  25.7km/h - 4.6mph /  7.4km/h
Wind Gust: 21.0mph /  33.8km/h - -
Wind- - SW
Pressure: 29.76 in /  1007.7 hPa 29.42 in /  996.2 hPa -
Precipitation: 0.00 in /  0 mm    
Historical Graphs
 
 
Tabular Data for January 25, 2017
Time Temperature Dew Point Pressure Wind Wind Speed Wind Gust Humidity Rainfall Rate (Hourly)
00:04 33.9 °F /  1.1 °C 29.6 °F /  -1.3 °C 29.70in /  1005.6hPa West 4.0mph /  6.4km/h 8.0mph /  12.9km/h 84% 0.00in /  0mm
00:09 33.9 °F /  1.1 °C 29.9 °F /  -1.2 °C 29.70in /  1005.6hPa West 4.0mph /  6.4km/h 8.0mph /  12.9km/h 85% 0.00in /  0mm
00:14 33.9 °F /  1.1 °C 29.9 °F /  -1.2 °C 29.70in /  1005.6hPa West 4.0mph /  6.4km/h 8.0mph /  12.9km/h 85% 0.00in /  0mm
00:19 33.9 °F /  1.1 °C 29.6 °F /  -1.3 °C 29.71in /  1006hPa West 4.0mph /  6.4km/h 8.0mph /  12.9km/h 84% 0.00in /  0mm
00:24 33.9 °F /  1.1 °C 29.9 °F /  -1.2 °C 29.71in /  1006hPa WSW 5.0mph /  8km/h 7.0mph /  11.3km/h 85% 0.00in /  0mm
00:29 33.9 °F /  1.1 °C 29.9 °F /  -1.2 °C 29.71in /  1006hPa West 2.0mph /  3.2km/h 8.0mph /  12.9km/h 85% 0.00in /  0mm
00:34 33.9 °F /  1.1 °C 29.6 °F /  -1.3 °C 29.71in /  1006hPa WNW 8.0mph /  12.9km/h 8.0mph /  12.9km/h 84% 0.00in /  0mm
00:39 34.0 °F /  1.1 °C 30.0 °F /  -1.1 °C 29.71in /  1006hPa West 4.0mph /  6.4km/h 8.0mph /  12.9km/h 85% 0.00in /  0mm
00:44 34.0 °F /  1.1 °C 30.0 °F /  -1.1 °C 29.71in /  1006hPa West 4.0mph /  6.4km/h 8.0mph /  12.9km/h 85% 0.00in /  0mm
00:49 34.0 °F /  1.1 °C 30.0 °F /  -1.1 °C 29.71in /  1006hPa NW 6.0mph /  9.7km/h 10.0mph /  16.1km/h 85% 0.00in /  0mm
00:54 34.0 °F /  1.1 °C 30.0 °F /  -1.1 °C 29.72in /  1006.3hPa West 3.0mph /  4.8km/h 11.0mph /  17.7km/h 85% 0.00in /  0mm
00:59 34.0 °F /  1.1 °C 30.0 °F /  -1.1 °C 29.72in /  1006.3hPa WNW 4.0mph /  6.4km/h 8.0mph /  12.9km/h 85% 0.00in /  0mm
01:04 34.0 °F /  1.1 °C 30.0 °F /  -1.1 °C 29.72in /  1006.3hPa West 4.0mph /  6.4km/h 7.0mph /  11.3km/h 85% 0.00in /  0mm
01:09 34.0 °F /  1.1 °C 30.0 °F /  -1.1 °C 29.72in /  1006.3hPa NW 4.0mph /  6.4km/h 11.0mph /  17.7km/h 85% 0.00in /  0mm
01:14 34.0 °F /  1.1 °C 30.0 °F /  -1.1 °C 29.72in /  1006.3hPa West 5.0mph /  8km/h 11.0mph /  17.7km/h 85% 0.00in /  0mm
01:19 33.9 °F /  1.1 °C 29.9 °F /  -1.2 °C 29.73in /  1006.7hPa West 3.0mph /  4.8km/h 7.0mph /  11.3km/h 85% 0.00in /  0mm
01:24 33.9 °F /  1.1 °C 29.9 °F /  -1.2 °C 29.72in /  1006.3hPa WNW 6.0mph /  9.7km/h 11.0mph /  17.7km/h 85% 0.00in /  0mm
01:29 33.8 °F /  1 °C 29.8 °F /  -1.2 °C 29.73in /  1006.7hPa WNW 10.0mph /  16.1km/h 12.0mph /  19.3km/h 85% 0.00in /  0mm
01:34 33.8 °F /  1 °C 29.5 °F /  -1.4 °C 29.73in /  1006.7hPa WNW 4.0mph /  6.4km/h 12.0mph /  19.3km/h 84% 0.00in /  0mm
01:39 33.8 °F /  1 °C 29.2 °F /  -1.6 °C 29.73in /  1006.7hPa WNW 2.0mph /  3.2km/h 12.0mph /  19.3km/h 83% 0.00in /  0mm
01:44 33.8 °F /  1 °C 29.2 °F /  -1.6 °C 29.73in /  1006.7hPa West 5.0mph /  8km/h 12.0mph /  19.3km/h 83% 0.00in /  0mm
01:49 33.8 °F /  1 °C 29.2 °F /  -1.6 °C 29.72in /  1006.3hPa West 5.0mph /  8km/h 10.0mph /  16.1km/h 83% 0.00in /  0mm
01:54 33.8 °F /  1 °C 29.2 °F /  -1.6 °C 29.73in /  1006.7hPa West 6.0mph /  9.7km/h 11.0mph /  17.7km/h 83% 0.00in /  0mm
01:59 33.8 °F /  1 °C 29.2 °F /  -1.6 °C 29.73in /  1006.7hPa West 5.0mph /  8km/h 11.0mph /  17.7km/h 83% 0.00in /  0mm
02:04 33.7 °F /  0.9 °C 29.1 °F /  -1.6 °C 29.73in /  1006.7hPa West 4.0mph /  6.4km/h 10.0mph /  16.1km/h 83% 0.00in /  0mm
02:09 33.6 °F /  0.9 °C 29.0 °F /  -1.7 °C 29.73in /  1006.7hPa West 7.0mph /  11.3km/h 12.0mph /  19.3km/h 83% 0.00in /  0mm
02:14 33.5 °F /  0.8 °C 28.9 °F /  -1.7 °C 29.73in /  1006.7hPa WNW 4.0mph /  6.4km/h 11.0mph /  17.7km/h 83% 0.00in /  0mm
02:19 33.5 °F /  0.8 °C 28.6 °F /  -1.9 °C 29.73in /  1006.7hPa West 5.0mph /  8km/h 11.0mph /  17.7km/h 82% 0.00in /  0mm
02:24 33.4 °F /  0.8 °C 28.5 °F /  -1.9 °C 29.74in /  1007hPa West 7.0mph /  11.3km/h 9.0mph /  14.5km/h 82% 0.00in /  0mm
02:29 33.3 °F /  0.7 °C 28.4 °F /  -2 °C 29.73in /  1006.7hPa West 5.0mph /  8km/h 8.0mph /  12.9km/h 82% 0.00in /  0mm
02:34 33.3 °F /  0.7 °C 28.1 °F /  -2.2 °C 29.74in /  1007hPa WNW 4.0mph /  6.4km/h 11.0mph /  17.7km/h 81% 0.00in /  0mm
02:39 33.1 °F /  0.6 °C 27.9 °F /  -2.3 °C 29.74in /  1007hPa West 4.0mph /  6.4km/h 8.0mph /  12.9km/h 81% 0.00in /  0mm
02:44 33.0 °F /  0.6 °C 28.1 °F /  -2.2 °C 29.74in /  1007hPa WNW 2.0mph /  3.2km/h 11.0mph /  17.7km/h 82% 0.00in /  0mm
02:49 32.8 °F /  0.4 °C 27.9 °F /  -2.3 °C 29.74in /  1007hPa WNW 4.0mph /  6.4km/h 11.0mph /  17.7km/h 82% 0.00in /  0mm
02:54 32.8 °F /  0.4 °C 27.9 °F /  -2.3 °C 29.74in /  1007hPa WNW 4.0mph /  6.4km/h 12.0mph /  19.3km/h 82% 0.00in /  0mm
02:59 32.7 °F /  0.4 °C 28.1 °F /  -2.2 °C 29.74in /  1007hPa West 5.0mph /  8km/h 12.0mph /  19.3km/h 83% 0.00in /  0mm
03:04 32.5 °F /  0.3 °C 27.9 °F /  -2.3 °C 29.74in /  1007hPa West 5.0mph /  8km/h 10.0mph /  16.1km/h 83% 0.00in /  0mm
03:09 32.4 °F /  0.2 °C 27.8 °F /  -2.3 °C 29.74in /  1007hPa WNW 8.0mph /  12.9km/h 14.0mph /  22.5km/h 83% 0.00in /  0mm
03:14 32.3 °F /  0.2 °C 27.7 °F /  -2.4 °C 29.74in /  1007hPa WNW 5.0mph /  8km/h 14.0mph /  22.5km/h 83% 0.00in /  0mm
03:19 32.3 °F /  0.2 °C 27.7 °F /  -2.4 °C 29.74in /  1007hPa West 7.0mph /  11.3km/h 10.0mph /  16.1km/h 83% 0.00in /  0mm
03:24 32.2 °F /  0.1 °C 27.9 °F /  -2.3 °C 29.75in /  1007.3hPa WNW 4.0mph /  6.4km/h 10.0mph /  16.1km/h 84% 0.00in /  0mm
03:29 32.1 °F /  0.1 °C 27.8 °F /  -2.3 °C 29.74in /  1007hPa West 4.0mph /  6.4km/h 7.0mph /  11.3km/h 84% 0.00in /  0mm
03:34 32.0 °F /  0 °C 27.7 °F /  -2.4 °C 29.75in /  1007.3hPa West 5.0mph /  8km/h 9.0mph /  14.5km/h 84% 0.00in /  0mm
03:39 32.0 °F /  0 °C 28.0 °F /  -2.2 °C 29.75in /  1007.3hPa West 3.0mph /  4.8km/h 7.0mph /  11.3km/h 85% 0.00in /  0mm
03:44 32.1 °F /  0.1 °C 28.1 °F /  -2.2 °C 29.75in /  1007.3hPa WSW 3.0mph /  4.8km/h 7.0mph /  11.3km/h 85% 0.00in /  0mm
03:49 32.2 °F /  0.1 °C 28.2 °F /  -2.1 °C 29.75in /  1007.3hPa WNW 4.0mph /  6.4km/h 7.0mph /  11.3km/h 85% 0.00in /  0mm
03:54 32.3 °F /  0.2 °C 28.3 °F /  -2.1 °C 29.75in /  1007.3hPa West 4.0mph /  6.4km/h 9.0mph /  14.5km/h 85% 0.00in /  0mm
03:59 32.4 °F /  0.2 °C 28.7 °F /  -1.8 °C 29.75in /  1007.3hPa West 3.0mph /  4.8km/h 9.0mph /  14.5km/h 86% 0.00in /  0mm
04:04 32.5 °F /  0.3 °C 28.8 °F /  -1.8 °C 29.75in /  1007.3hPa West 3.0mph /  4.8km/h 8.0mph /  12.9km/h 86% 0.00in /  0mm
04:09 32.6 °F /  0.3 °C 28.9 °F /  -1.7 °C 29.75in /  1007.3hPa West 3.0mph /  4.8km/h 6.0mph /  9.7km/h 86% 0.00in /  0mm
04:14 32.8 °F /  0.4 °C 29.1 °F /  -1.6 °C 29.75in /  1007.3hPa West 3.0mph /  4.8km/h 6.0mph /  9.7km/h 86% 0.00in /  0mm
04:19 33.0 °F /  0.6 °C 29.3 °F /  -1.5 °C 29.76in /  1007.7hPa West 5.0mph /  8km/h 8.0mph /  12.9km/h 86% 0.00in /  0mm
04:24 33.1 °F /  0.6 °C 29.7 °F /  -1.3 °C 29.76in /  1007.7hPa WSW 3.0mph /  4.8km/h 8.0mph /  12.9km/h 87% 0.00in /  0mm
04:29 33.3 °F /  0.7 °C 29.8 °F /  -1.2 °C 29.76in /  1007.7hPa West 2.0mph /  3.2km/h 5.0mph /  8km/h 87% 0.00in /  0mm
04:34 33.4 °F /  0.8 °C 29.9 °F /  -1.2 °C 29.75in /  1007.3hPa WSW 3.0mph /  4.8km/h 6.0mph /  9.7km/h 87% 0.00in /  0mm
04:39 33.5 °F /  0.8 °C 30.0 °F /  -1.1 °C 29.75in /  1007.3hPa West 3.0mph /  4.8km/h 6.0mph /  9.7km/h 87% 0.00in /  0mm
04:44 33.6 °F /  0.9 °C 30.1 °F /  -1.1 °C 29.75in /  1007.3hPa West 3.0mph /  4.8km/h 5.0mph /  8km/h 87% 0.00in /  0mm
04:49 33.7 °F /  0.9 °C 30.2 °F /  -1 °C 29.75in /  1007.3hPa West 3.0mph /  4.8km/h 5.0mph /  8km/h 87% 0.00in /  0mm
04:54 33.8 °F /  1 °C 30.3 °F /  -0.9 °C 29.75in /  1007.3hPa WNW 2.0mph /  3.2km/h 6.0mph /  9.7km/h 87% 0.00in /  0mm
04:59 33.9 °F /  1.1 °C 30.4 °F /  -0.9 °C 29.75in /  1007.3hPa West 3.0mph /  4.8km/h 6.0mph /  9.7km/h 87% 0.00in /  0mm
05:04 33.9 °F /  1.1 °C 30.4 °F /  -0.9 °C 29.75in /  1007.3hPa West 3.0mph /  4.8km/h 5.0mph /  8km/h 87% 0.00in /  0mm
05:09 34.0 °F /  1.1 °C 30.8 °F /  -0.7 °C 29.75in /  1007.3hPa West 2.0mph /  3.2km/h 7.0mph /  11.3km/h 88% 0.00in /  0mm
05:14 34.1 °F /  1.2 °C 30.9 °F /  -0.6 °C 29.75in /  1007.3hPa West 3.0mph /  4.8km/h 6.0mph /  9.7km/h 88% 0.00in /  0mm
05:19 34.2 °F /  1.2 °C 31.0 °F /  -0.6 °C 29.75in /  1007.3hPa West 2.0mph /  3.2km/h 7.0mph /  11.3km/h 88% 0.00in /  0mm
05:24 34.3 °F /  1.3 °C 31.1 °F /  -0.5 °C 29.75in /  1007.3hPa WSW 1.0mph /  1.6km/h 6.0mph /  9.7km/h 88% 0.00in /  0mm
05:29 34.3 °F /  1.3 °C 31.1 °F /  -0.5 °C 29.75in /  1007.3hPa WSW 3.0mph /  4.8km/h 6.0mph /  9.7km/h 88% 0.00in /  0mm
05:34 34.4 °F /  1.3 °C 31.5 °F /  -0.3 °C 29.75in /  1007.3hPa WSW 3.0mph /  4.8km/h 8.0mph /  12.9km/h 89% 0.00in /  0mm
05:39 34.4 °F /  1.3 °C 31.5 °F /  -0.3 °C 29.76in /  1007.7hPa WSW 3.0mph /  4.8km/h 8.0mph /  12.9km/h 89% 0.00in /  0mm
05:44 34.6 °F /  1.4 °C 31.7 °F /  -0.2 °C 29.75in /  1007.3hPa West 3.0mph /  4.8km/h 6.0mph /  9.7km/h 89% 0.00in /  0mm
05:49 34.6 °F /  1.4 °C 31.7 °F /  -0.2 °C 29.76in /  1007.7hPa WSW 3.0mph /  4.8km/h 6.0mph /  9.7km/h 89% 0.00in /  0mm
05:54 34.8 °F /  1.6 °C 32.2 °F /  0.1 °C 29.76in /  1007.7hPa WSW 3.0mph /  4.8km/h 6.0mph /  9.7km/h 90% 0.00in /  0mm
05:59 34.8 °F /  1.6 °C 32.2 °F /  0.1 °C 29.76in /  1007.7hPa SW 3.0mph /  4.8km/h 6.0mph /  9.7km/h 90% 0.01in /  0.25mm
06:04 35.0 °F /  1.7 °C 32.4 °F /  0.2 °C 29.76in /  1007.7hPa SW 3.0mph /  4.8km/h 7.0mph /  11.3km/h 90% 0.01in /  0.25mm
06:09 35.0 °F /  1.7 °C 32.6 °F /  0.3 °C 29.75in /  1007.3hPa West 5.0mph /  8km/h 8.0mph /  12.9km/h 91% 0.01in /  0.25mm
06:14 35.1 °F /  1.7 °C 32.7 °F /  0.4 °C 29.75in /  1007.3hPa WSW 2.0mph /  3.2km/h 7.0mph /  11.3km/h 91% 0.01in /  0.25mm
06:19 35.1 °F /  1.7 °C 32.7 °F /  0.4 °C 29.75in /  1007.3hPa SSW 4.0mph /  6.4km/h 8.0mph /  12.9km/h 91% 0.01in /  0.25mm
06:24 35.2 °F /  1.8 °C 32.8 °F /  0.4 °C 29.75in /  1007.3hPa West 3.0mph /  4.8km/h 6.0mph /  9.7km/h 91% 0.01in /  0.25mm
06:29 35.2 °F /  1.8 °C 32.8 °F /  0.4 °C 29.75in /  1007.3hPa West 4.0mph /  6.4km/h 7.0mph /  11.3km/h 91% 0.01in /  0.25mm
06:34 35.2 °F /  1.8 °C 32.8 °F /  0.4 °C 29.75in /  1007.3hPa WSW 4.0mph /  6.4km/h 8.0mph /  12.9km/h 91% 0.01in /  0.25mm
06:39 35.2 °F /  1.8 °C 33.1 °F /  0.6 °C 29.75in /  1007.3hPa WSW 3.0mph /  4.8km/h 8.0mph /  12.9km/h 92% 0.01in /  0.25mm
06:44 35.2 °F /  1.8 °C 33.1 °F /  0.6 °C 29.75in /  1007.3hPa WSW 4.0mph /  6.4km/h 11.0mph /  17.7km/h 92% 0.01in /  0.25mm
06:49 35.2 °F /  1.8 °C 33.1 °F /  0.6 °C 29.75in /  1007.3hPa WSW 4.0mph /  6.4km/h 11.0mph /  17.7km/h 92% 0.01in /  0.25mm
06:54 35.2 °F /  1.8 °C 33.1 °F /  0.6 °C 29.75in /  1007.3hPa WNW 3.0mph /  4.8km/h 8.0mph /  12.9km/h 92% 0.01in /  0.25mm
06:59 35.3 °F /  1.8 °C 33.2 °F /  0.7 °C 29.74in /  1007hPa West 4.0mph /  6.4km/h 7.0mph /  11.3km/h 92% 0.00in /  0mm
07:04 35.3 °F /  1.8 °C 33.2 °F /  0.7 °C 29.74in /  1007hPa WSW 5.0mph /  8km/h 10.0mph /  16.1km/h 92% 0.00in /  0mm
07:09 35.3 °F /  1.8 °C 33.2 °F /  0.7 °C 29.74in /  1007hPa WSW 4.0mph /  6.4km/h 10.0mph /  16.1km/h 92% 0.00in /  0mm
07:14 35.3 °F /  1.8 °C 33.2 °F /  0.7 °C 29.74in /  1007hPa WSW 4.0mph /  6.4km/h 8.0mph /  12.9km/h 92% 0.00in /  0mm
07:19 35.3 °F /  1.8 °C 33.2 °F /  0.7 °C 29.74in /  1007hPa SW 5.0mph /  8km/h 9.0mph /  14.5km/h 92% 0.00in /  0mm
07:24 35.3 °F /  1.8 °C 33.2 °F /  0.7 °C 29.74in /  1007hPa West 3.0mph /  4.8km/h 9.0mph /  14.5km/h 92% 0.00in /  0mm
07:29 35.3 °F /  1.8 °C 33.2 °F /  0.7 °C 29.74in /  1007hPa SW 7.0mph /  11.3km/h 8.0mph /  12.9km/h 92% 0.01in /  0.25mm
07:34 35.3 °F /  1.8 °C 33.2 °F /  0.7 °C 29.74in /  1007hPa SW 7.0mph /  11.3km/h 10.0mph /  16.1km/h 92% 0.01in /  0.25mm
07:39 35.3 °F /  1.8 °C 33.2 °F /  0.7 °C 29.74in /  1007hPa WSW 6.0mph /  9.7km/h 11.0mph /  17.7km/h 92% 0.01in /  0.25mm
07:44 35.2 °F /  1.8 °C 33.1 °F /  0.6 °C 29.74in /  1007hPa WSW 6.0mph /  9.7km/h 11.0mph /  17.7km/h 92% 0.01in /  0.25mm
07:49 35.3 °F /  1.8 °C 33.2 °F /  0.7 °C 29.74in /  1007hPa WSW 7.0mph /  11.3km/h 10.0mph /  16.1km/h 92% 0.01in /  0.25mm
07:54 35.3 °F /  1.8 °C 33.2 °F /  0.7 °C 29.74in /  1007hPa WSW 4.0mph /  6.4km/h 11.0mph /  17.7km/h 92% 0.01in /  0.25mm
07:59 35.4 °F /  1.9 °C 33.3 °F /  0.7 °C 29.74in /  1007hPa West 6.0mph /  9.7km/h 10.0mph /  16.1km/h 92% 0.01in /  0.25mm
08:04 35.4 °F /  1.9 °C 33.3 °F /  0.7 °C 29.73in /  1006.7hPa WSW 6.0mph /  9.7km/h 13.0mph /  20.9km/h 92% 0.02in /  0.51mm
08:09 35.5 °F /  1.9 °C 33.4 °F /  0.8 °C 29.73in /  1006.7hPa WSW 7.0mph /  11.3km/h 13.0mph /  20.9km/h 92% 0.02in /  0.51mm
08:14 35.5 °F /  1.9 °C 33.4 °F /  0.8 °C 29.73in /  1006.7hPa WSW 6.0mph /  9.7km/h 12.0mph /  19.3km/h 92% 0.02in /  0.51mm
08:19 35.6 °F /  2 °C 33.8 °F /  1 °C 29.74in /  1007hPa WSW 6.0mph /  9.7km/h 13.0mph /  20.9km/h 93% 0.02in /  0.51mm
08:24 35.7 °F /  2.1 °C 33.9 °F /  1.1 °C 29.74in /  1007hPa WSW 6.0mph /  9.7km/h 13.0mph /  20.9km/h 93% 0.02in /  0.51mm
08:29 35.8 °F /  2.1 °C 34.0 °F /  1.1 °C 29.74in /  1007hPa West 5.0mph /  8km/h 13.0mph /  20.9km/h 93% 0.01in /  0.25mm
08:34 35.9 °F /  2.2 °C 34.1 °F /  1.2 °C 29.73in /  1006.7hPa WSW 4.0mph /  6.4km/h 12.0mph /  19.3km/h 93% 0.01in /  0.25mm
08:39 36.0 °F /  2.2 °C 34.2 °F /  1.2 °C 29.73in /  1006.7hPa WSW 8.0mph /  12.9km/h 12.0mph /  19.3km/h 93% 0.02in /  0.51mm
08:44 36.0 °F /  2.2 °C 34.2 °F /  1.2 °C 29.74in /  1007hPa WSW 6.0mph /  9.7km/h 12.0mph /  19.3km/h 93% 0.02in /  0.51mm
08:49 36.1 °F /  2.3 °C 34.3 °F /  1.3 °C 29.74in /  1007hPa WSW 6.0mph /  9.7km/h 12.0mph /  19.3km/h 93% 0.02in /  0.51mm
08:54 36.0 °F /  2.2 °C 34.2 °F /  1.2 °C 29.74in /  1007hPa WSW 7.0mph /  11.3km/h 16.0mph /  25.7km/h 93% 0.02in /  0.51mm
08:59 36.0 °F /  2.2 °C 34.2 °F /  1.2 °C 29.74in /  1007hPa West 5.0mph /  8km/h 16.0mph /  25.7km/h 93% 0.02in /  0.51mm
09:04 36.0 °F /  2.2 °C 34.2 °F /  1.2 °C 29.74in /  1007hPa SW 9.0mph /  14.5km/h 13.0mph /  20.9km/h 93% 0.02in /  0.51mm
09:09 36.1 °F /  2.3 °C 34.3 °F /  1.3 °C 29.74in /  1007hPa WSW 9.0mph /  14.5km/h 14.0mph /  22.5km/h 93% 0.02in /  0.51mm
09:14 36.1 °F /  2.3 °C 34.3 °F /  1.3 °C 29.74in /  1007hPa WSW 7.0mph /  11.3km/h 14.0mph /  22.5km/h 93% 0.02in /  0.51mm
09:19 36.1 °F /  2.3 °C 34.3 °F /  1.3 °C 29.74in /  1007hPa WSW 6.0mph /  9.7km/h 12.0mph /  19.3km/h 93% 0.02in /  0.51mm
09:24 36.1 °F /  2.3 °C 34.3 °F /  1.3 °C 29.73in /  1006.7hPa WSW 6.0mph /  9.7km/h 13.0mph /  20.9km/h 93% 0.02in /  0.51mm
09:29 36.2 °F /  2.3 °C 34.4 °F /  1.3 °C 29.73in /  1006.7hPa WSW 6.0mph /  9.7km/h 13.0mph /  20.9km/h 93% 0.02in /  0.51mm
09:34 36.3 °F /  2.4 °C 34.5 °F /  1.4 °C 29.73in /  1006.7hPa WSW 6.0mph /  9.7km/h 10.0mph /  16.1km/h 93% 0.03in /  0.76mm
09:39 36.3 °F /  2.4 °C 34.5 °F /  1.4 °C 29.72in /  1006.3hPa West 7.0mph /  11.3km/h 11.0mph /  17.7km/h 93% 0.02in /  0.51mm
09:44 36.4 °F /  2.4 °C 34.6 °F /  1.4 °C 29.72in /  1006.3hPa WSW 12.0mph /  19.3km/h 12.0mph /  19.3km/h 93% 0.02in /  0.51mm
09:49 36.4 °F /  2.4 °C 34.6 °F /  1.4 °C 29.72in /  1006.3hPa WSW 6.0mph /  9.7km/h 12.0mph /  19.3km/h 93% 0.02in /  0.51mm
09:54 36.5 °F /  2.5 °C 34.7 °F /  1.5 °C 29.71in /  1006hPa WSW 3.0mph /  4.8km/h 12.0mph /  19.3km/h 93% 0.02in /  0.51mm
09:59 36.5 °F /  2.5 °C 34.7 °F /  1.5 °C 29.71in /  1006hPa SSW 6.0mph /  9.7km/h 12.0mph /  19.3km/h 93% 0.03in /  0.76mm
10:04 36.6 °F /  2.6 °C 34.8 °F /  1.6 °C 29.71in /  1006hPa SW 10.0mph /  16.1km/h 11.0mph /  17.7km/h 93% 0.02in /  0.51mm
10:09 36.5 °F /  2.5 °C 34.7 °F /  1.5 °C 29.72in /  1006.3hPa SW 5.0mph /  8km/h 16.0mph /  25.7km/h 93% 0.02in /  0.51mm
10:14 36.5 °F /  2.5 °C 34.7 °F /  1.5 °C 29.71in /  1006hPa WSW 6.0mph /  9.7km/h 13.0mph /  20.9km/h 93% 0.02in /  0.51mm
10:19 36.5 °F /  2.5 °C 34.7 °F /  1.5 °C 29.72in /  1006.3hPa WSW 6.0mph /  9.7km/h 13.0mph /  20.9km/h 93% 0.02in /  0.51mm
10:24 36.7 °F /  2.6 °C 34.9 °F /  1.6 °C 29.72in /  1006.3hPa WSW 7.0mph /  11.3km/h 13.0mph /  20.9km/h 93% 0.02in /  0.51mm
10:29 36.8 °F /  2.7 °C 35.0 °F /  1.7 °C 29.72in /  1006.3hPa WSW 7.0mph /  11.3km/h 14.0mph /  22.5km/h 93% 0.02in /  0.51mm
10:34 36.8 °F /  2.7 °C 34.7 °F /  1.5 °C 29.72in /  1006.3hPa WSW 7.0mph /  11.3km/h 14.0mph /  22.5km/h 92% 0.02in /  0.51mm
10:39 36.9 °F /  2.7 °C 34.8 °F /  1.6 °C 29.71in /  1006hPa SSW 7.0mph /  11.3km/h 19.0mph /  30.6km/h 92% 0.02in /  0.51mm
10:49 37.0 °F /  2.8 °C 34.9 °F /  1.6 °C 29.72in /  1006.3hPa WSW 9.0mph /  14.5km/h 15.0mph /  24.1km/h 92% 0.02in /  0.51mm
10:54 37.0 °F /  2.8 °C 34.9 °F /  1.6 °C 29.73in /  1006.7hPa WSW 8.0mph /  12.9km/h 15.0mph /  24.1km/h 92% 0.02in /  0.51mm
10:59 37.0 °F /  2.8 °C 34.9 °F /  1.6 °C 29.73in /  1006.7hPa South 4.0mph /  6.4km/h 14.0mph /  22.5km/h 92% 0.01in /  0.25mm
11:04 37.1 °F /  2.8 °C 35.0 °F /  1.7 °C 29.72in /  1006.3hPa WSW 4.0mph /  6.4km/h 16.0mph /  25.7km/h 92% 0.01in /  0.25mm
11:09 37.0 °F /  2.8 °C 34.9 °F /  1.6 °C 29.72in /  1006.3hPa SW 7.0mph /  11.3km/h 14.0mph /  22.5km/h 92% 0.01in /  0.25mm
11:14 37.0 °F /  2.8 °C 34.6 °F /  1.4 °C 29.72in /  1006.3hPa SW 5.0mph /  8km/h 18.0mph /  29km/h 91% 0.01in /  0.25mm
11:19 37.0 °F /  2.8 °C 34.6 °F /  1.4 °C 29.71in /  1006hPa WSW 4.0mph /  6.4km/h 15.0mph /  24.1km/h 91% 0.01in /  0.25mm
11:24 37.2 °F /  2.9 °C 34.8 °F /  1.6 °C 29.70in /  1005.6hPa WSW 7.0mph /  11.3km/h 15.0mph /  24.1km/h 91% 0.01in /  0.25mm
11:29 37.3 °F /  2.9 °C 34.9 °F /  1.6 °C 29.70in /  1005.6hPa WSW 7.0mph /  11.3km/h 14.0mph /  22.5km/h 91% 0.01in /  0.25mm
11:34 37.5 °F /  3.1 °C 34.8 °F /  1.6 °C 29.70in /  1005.6hPa WSW 7.0mph /  11.3km/h 14.0mph /  22.5km/h 90% 0.00in /  0mm
11:39 37.7 °F /  3.2 °C 34.8 °F /  1.6 °C 29.70in /  1005.6hPa WSW 8.0mph /  12.9km/h 15.0mph /  24.1km/h 89% 0.00in /  0mm
11:44 37.6 °F /  3.1 °C 34.7 °F /  1.5 °C 29.69in /  1005.3hPa SW 7.0mph /  11.3km/h 18.0mph /  29km/h 89% 0.00in /  0mm
11:49 37.5 °F /  3.1 °C 34.6 °F /  1.4 °C 29.68in /  1005hPa NW 7.0mph /  11.3km/h 14.0mph /  22.5km/h 89% 0.00in /  0mm
11:54 37.7 °F /  3.2 °C 34.8 °F /  1.6 °C 29.67in /  1004.6hPa WSW 8.0mph /  12.9km/h 14.0mph /  22.5km/h 89% 0.00in /  0mm
11:59 37.8 °F /  3.2 °C 34.6 °F /  1.4 °C 29.67in /  1004.6hPa WSW 7.0mph /  11.3km/h 13.0mph /  20.9km/h 88% 0.00in /  0mm
12:04 38.0 °F /  3.3 °C 34.8 °F /  1.6 °C 29.66in /  1004.3hPa WSW 7.0mph /  11.3km/h 13.0mph /  20.9km/h 88% 0.00in /  0mm
12:09 38.2 °F /  3.4 °C 35.0 °F /  1.7 °C 29.67in /  1004.6hPa West 8.0mph /  12.9km/h 11.0mph /  17.7km/h 88% 0.00in /  0mm
12:14 38.1 °F /  3.4 °C 34.6 °F /  1.4 °C 29.68in /  1005hPa WSW 10.0mph /  16.1km/h 14.0mph /  22.5km/h 87% 0.00in /  0mm
12:19 38.0 °F /  3.3 °C 34.5 °F /  1.4 °C 29.68in /  1005hPa SW 10.0mph /  16.1km/h 20.0mph /  32.2km/h 87% 0.00in /  0mm
12:24 37.9 °F /  3.3 °C 34.4 °F /  1.3 °C 29.68in /  1005hPa WSW 11.0mph /  17.7km/h 14.0mph /  22.5km/h 87% 0.00in /  0mm
12:29 37.7 °F /  3.2 °C 34.2 °F /  1.2 °C 29.68in /  1005hPa WSW 7.0mph /  11.3km/h 15.0mph /  24.1km/h 87% 0.00in /  0mm
12:34 37.7 °F /  3.2 °C 34.2 °F /  1.2 °C 29.68in /  1005hPa WSW 7.0mph /  11.3km/h 15.0mph /  24.1km/h 87% 0.00in /  0mm
12:39 37.8 °F /  3.2 °C 34.3 °F /  1.3 °C 29.68in /  1005hPa WSW 8.0mph /  12.9km/h 17.0mph /  27.4km/h 87% 0.00in /  0mm
12:44 38.1 °F /  3.4 °C 34.6 °F /  1.4 °C 29.67in /  1004.6hPa SSW 10.0mph /  16.1km/h 15.0mph /  24.1km/h 87% 0.00in /  0mm
12:49 38.3 °F /  3.5 °C 34.5 °F /  1.4 °C 29.67in /  1004.6hPa SW 6.0mph /  9.7km/h 11.0mph /  17.7km/h 86% 0.00in /  0mm
12:54 38.4 °F /  3.6 °C 34.6 °F /  1.4 °C 29.67in /  1004.6hPa WSW 13.0mph /  20.9km/h 17.0mph /  27.4km/h 86% 0.00in /  0mm
12:59 38.6 °F /  3.7 °C 34.5 °F /  1.4 °C 29.67in /  1004.6hPa WSW 8.0mph /  12.9km/h 17.0mph /  27.4km/h 85% 0.00in /  0mm
13:04 38.5 °F /  3.6 °C 34.4 °F /  1.3 °C 29.67in /  1004.6hPa WSW 8.0mph /  12.9km/h 16.0mph /  25.7km/h 85% 0.00in /  0mm
13:09 38.5 °F /  3.6 °C 34.1 °F /  1.2 °C 29.66in /  1004.3hPa WSW 8.0mph /  12.9km/h 14.0mph /  22.5km/h 84% 0.00in /  0mm
13:14 38.6 °F /  3.7 °C 34.2 °F /  1.2 °C 29.65in /  1003.9hPa West 4.0mph /  6.4km/h 13.0mph /  20.9km/h 84% 0.00in /  0mm
13:19 38.7 °F /  3.7 °C 34.0 °F /  1.1 °C 29.65in /  1003.9hPa SW 6.0mph /  9.7km/h 15.0mph /  24.1km/h 83% 0.00in /  0mm
13:24 38.9 °F /  3.8 °C 33.9 °F /  1.1 °C 29.63in /  1003.3hPa SW 2.0mph /  3.2km/h 12.0mph /  19.3km/h 82% 0.00in /  0mm
13:29 39.1 °F /  3.9 °C 34.1 °F /  1.2 °C 29.63in /  1003.3hPa West 7.0mph /  11.3km/h 11.0mph /  17.7km/h 82% 0.00in /  0mm
13:34 39.2 °F /  4 °C 33.9 °F /  1.1 °C 29.63in /  1003.3hPa WSW 5.0mph /  8km/h 11.0mph /  17.7km/h 81% 0.00in /  0mm
13:39 39.3 °F /  4.1 °C 34.0 °F /  1.1 °C 29.62in /  1002.9hPa WSW 5.0mph /  8km/h 10.0mph /  16.1km/h 81% 0.00in /  0mm
13:44 39.3 °F /  4.1 °C 34.0 °F /  1.1 °C 29.61in /  1002.6hPa WSW 4.0mph /  6.4km/h 11.0mph /  17.7km/h 81% 0.00in /  0mm
13:49 39.1 °F /  3.9 °C 33.5 °F /  0.8 °C 29.61in /  1002.6hPa SW 8.0mph /  12.9km/h 10.0mph /  16.1km/h 80% 0.00in /  0mm
13:54 39.1 °F /  3.9 °C 33.8 °F /  1 °C 29.60in /  1002.3hPa SW 4.0mph /  6.4km/h 8.0mph /  12.9km/h 81% 0.00in /  0mm
13:59 39.1 °F /  3.9 °C 33.8 °F /  1 °C 29.60in /  1002.3hPa South 6.0mph /  9.7km/h 10.0mph /  16.1km/h 81% 0.00in /  0mm
14:04 39.0 °F /  3.9 °C 33.7 °F /  0.9 °C 29.60in /  1002.3hPa WSW 5.0mph /  8km/h 10.0mph /  16.1km/h 81% 0.00in /  0mm
14:09 38.9 °F /  3.8 °C 33.3 °F /  0.7 °C 29.60in /  1002.3hPa WSW 5.0mph /  8km/h 10.0mph /  16.1km/h 80% 0.00in /  0mm
14:14 38.8 °F /  3.8 °C 33.2 °F /  0.7 °C 29.60in /  1002.3hPa WSW 5.0mph /  8km/h 11.0mph /  17.7km/h 80% 0.00in /  0mm
14:19 38.8 °F /  3.8 °C 33.2 °F /  0.7 °C 29.60in /  1002.3hPa SW 3.0mph /  4.8km/h 8.0mph /  12.9km/h 80% 0.00in /  0mm
14:24 38.8 °F /  3.8 °C 33.2 °F /  0.7 °C 29.60in /  1002.3hPa SW 3.0mph /  4.8km/h 6.0mph /  9.7km/h 80% 0.00in /  0mm
14:29 38.9 °F /  3.8 °C 33.6 °F /  0.9 °C 29.60in /  1002.3hPa WSW 3.0mph /  4.8km/h 6.0mph /  9.7km/h 81% 0.00in /  0mm
14:34 38.9 °F /  3.8 °C 33.3 °F /  0.7 °C 29.59in /  1001.9hPa WSW 4.0mph /  6.4km/h 6.0mph /  9.7km/h 80% 0.00in /  0mm
14:39 38.9 °F /  3.8 °C 33.3 °F /  0.7 °C 29.60in /  1002.3hPa WSW 3.0mph /  4.8km/h 6.0mph /  9.7km/h 80% 0.00in /  0mm
14:44 38.8 °F /  3.8 °C 33.2 °F /  0.7 °C 29.60in /  1002.3hPa WSW 3.0mph /  4.8km/h 7.0mph /  11.3km/h 80% 0.00in /  0mm
14:49 38.8 °F /  3.8 °C 33.2 °F /  0.7 °C 29.59in /  1001.9hPa WSW 3.0mph /  4.8km/h 7.0mph /  11.3km/h 80% 0.00in /  0mm
14:54 38.9 °F /  3.8 °C 33.6 °F /  0.9 °C 29.58in /  1001.6hPa WSW 1.0mph /  1.6km/h 4.0mph /  6.4km/h 81% 0.00in /  0mm
14:59 39.1 °F /  3.9 °C 34.1 °F /  1.2 °C 29.58in /  1001.6hPa WSW 3.0mph /  4.8km/h 4.0mph /  6.4km/h 82% 0.00in /  0mm
15:04 39.1 °F /  3.9 °C 33.8 °F /  1 °C 29.57in /  1001.2hPa Calm   4.0mph /  6.4km/h 81% 0.00in /  0mm
15:09 39.2 °F /  4 °C 33.9 °F /  1.1 °C 29.57in /  1001.2hPa WSW 1.0mph /  1.6km/h 4.0mph /  6.4km/h 81% 0.00in /  0mm
15:14 39.3 °F /  4.1 °C 33.6 °F /  0.9 °C 29.57in /  1001.2hPa West 1.0mph /  1.6km/h 4.0mph /  6.4km/h 80% 0.00in /  0mm
15:19 39.3 °F /  4.1 °C 34.0 °F /  1.1 °C 29.58in /  1001.6hPa WSW 2.0mph /  3.2km/h 4.0mph /  6.4km/h 81% 0.00in /  0mm
15:24 39.3 °F /  4.1 °C 34.0 °F /  1.1 °C 29.57in /  1001.2hPa WSW 2.0mph /  3.2km/h 4.0mph /  6.4km/h 81% 0.00in /  0mm
15:29 39.3 °F /  4.1 °C 34.0 °F /  1.1 °C 29.57in /  1001.2hPa WSW 2.0mph /  3.2km/h 4.0mph /  6.4km/h 81% 0.00in /  0mm
15:34 39.4 °F /  4.1 °C 34.4 °F /  1.3 °C 29.57in /  1001.2hPa WSW 1.0mph /  1.6km/h 3.0mph /  4.8km/h 82% 0.00in /  0mm
15:39 39.6 °F /  4.2 °C 34.6 °F /  1.4 °C 29.57in /  1001.2hPa SSW 2.0mph /  3.2km/h 4.0mph /  6.4km/h 82% 0.00in /  0mm
15:44 39.5 °F /  4.2 °C 34.2 °F /  1.2 °C 29.57in /  1001.2hPa SSW 2.0mph /  3.2km/h 4.0mph /  6.4km/h 81% 0.00in /  0mm
15:49 39.5 °F /  4.2 °C 34.2 °F /  1.2 °C 29.58in /  1001.6hPa SSW 2.0mph /  3.2km/h 4.0mph /  6.4km/h 81% 0.00in /  0mm
15:54 39.5 °F /  4.2 °C 34.5 °F /  1.4 °C 29.57in /  1001.2hPa SSW 1.0mph /  1.6km/h 4.0mph /  6.4km/h 82% 0.00in /  0mm
15:59 39.4 °F /  4.1 °C 34.4 °F /  1.3 °C 29.57in /  1001.2hPa Calm   2.0mph /  3.2km/h 82% 0.00in /  0mm
16:04 39.3 °F /  4.1 °C 34.0 °F /  1.1 °C 29.57in /  1001.2hPa Calm   1.0mph /  1.6km/h 81% 0.00in /  0mm
16:09 39.4 °F /  4.1 °C 34.4 °F /  1.3 °C 29.57in /  1001.2hPa SW 1.0mph /  1.6km/h 3.0mph /  4.8km/h 82% 0.00in /  0mm
16:14 39.4 °F /  4.1 °C 34.4 °F /  1.3 °C 29.57in /  1001.2hPa SW 1.0mph /  1.6km/h 3.0mph /  4.8km/h 82% 0.00in /  0mm
16:19 39.4 °F /  4.1 °C 34.4 °F /  1.3 °C 29.56in /  1000.9hPa Calm   3.0mph /  4.8km/h 82% 0.00in /  0mm
16:24 39.5 °F /  4.2 °C 34.5 °F /  1.4 °C 29.55in /  1000.6hPa ESE 1.0mph /  1.6km/h 3.0mph /  4.8km/h 82% 0.00in /  0mm
16:29 39.6 °F /  4.2 °C 34.6 °F /  1.4 °C 29.55in /  1000.6hPa Calm   2.0mph /  3.2km/h 82% 0.00in /  0mm
16:34 39.6 °F /  4.2 °C 34.6 °F /  1.4 °C 29.54in /  1000.2hPa East 3.0mph /  4.8km/h 3.0mph /  4.8km/h 82% 0.00in /  0mm
16:39 39.6 °F /  4.2 °C 34.6 °F /  1.4 °C 29.53in /  999.9hPa ESE 2.0mph /  3.2km/h 3.0mph /  4.8km/h 82% 0.00in /  0mm
16:44 39.6 °F /  4.2 °C 34.9 °F /  1.6 °C 29.53in /  999.9hPa ESE 1.0mph /  1.6km/h 3.0mph /  4.8km/h 83% 0.00in /  0mm
16:49 39.6 °F /  4.2 °C 34.9 °F /  1.6 °C 29.53in /  999.9hPa East 1.0mph /  1.6km/h 5.0mph /  8km/h 83% 0.00in /  0mm
16:54 39.6 °F /  4.2 °C 34.9 °F /  1.6 °C 29.53in /  999.9hPa East 1.0mph /  1.6km/h 5.0mph /  8km/h 83% 0.00in /  0mm
16:59 39.6 °F /  4.2 °C 34.9 °F /  1.6 °C 29.52in /  999.5hPa East 1.0mph /  1.6km/h 5.0mph /  8km/h 83% 0.00in /  0mm
17:04 39.7 °F /  4.3 °C 35.0 °F /  1.7 °C 29.51in /  999.2hPa ENE 2.0mph /  3.2km/h 5.0mph /  8km/h 83% 0.00in /  0mm
17:09 39.7 °F /  4.3 °C 35.0 °F /  1.7 °C 29.51in /  999.2hPa Calm   5.0mph /  8km/h 83% 0.00in /  0mm
17:14 39.7 °F /  4.3 °C 35.0 °F /  1.7 °C 29.51in /  999.2hPa East 1.0mph /  1.6km/h 5.0mph /  8km/h 83% 0.00in /  0mm
17:19 39.7 °F /  4.3 °C 35.0 °F /  1.7 °C 29.51in /  999.2hPa ESE 1.0mph /  1.6km/h 5.0mph /  8km/h 83% 0.00in /  0mm
17:24 39.7 °F /  4.3 °C 35.0 °F /  1.7 °C 29.51in /  999.2hPa Calm   4.0mph /  6.4km/h 83% 0.00in /  0mm
17:29 39.6 °F /  4.2 °C 34.9 °F /  1.6 °C 29.51in /  999.2hPa SE 1.0mph /  1.6km/h 3.0mph /  4.8km/h 83% 0.00in /  0mm
17:34 39.6 °F /  4.2 °C 34.9 °F /  1.6 °C 29.51in /  999.2hPa SE 2.0mph /  3.2km/h 5.0mph /  8km/h 83% 0.00in /  0mm
17:39 39.7 °F /  4.3 °C 35.0 °F /  1.7 °C 29.50in /  998.9hPa ENE 1.0mph /  1.6km/h 5.0mph /  8km/h 83% 0.00in /  0mm
17:44 39.7 °F /  4.3 °C 35.0 °F /  1.7 °C 29.50in /  998.9hPa ESE 1.0mph /  1.6km/h 4.0mph /  6.4km/h 83% 0.00in /  0mm
17:49 39.8 °F /  4.3 °C 35.1 °F /  1.7 °C 29.50in /  998.9hPa East 1.0mph /  1.6km/h 5.0mph /  8km/h 83% 0.00in /  0mm
17:54 39.8 °F /  4.3 °C 35.1 °F /  1.7 °C 29.49in /  998.5hPa ESE 2.0mph /  3.2km/h 5.0mph /  8km/h 83% 0.00in /  0mm
17:59 39.8 °F /  4.3 °C 35.1 °F /  1.7 °C 29.49in /  998.5hPa ESE 2.0mph /  3.2km/h 5.0mph /  8km/h 83% 0.00in /  0mm
18:04 39.8 °F /  4.3 °C 35.1 °F /  1.7 °C 29.50in /  998.9hPa ESE 1.0mph /  1.6km/h 5.0mph /  8km/h 83% 0.00in /  0mm
18:09 39.7 °F /  4.3 °C 35.0 °F /  1.7 °C 29.50in /  998.9hPa SE 3.0mph /  4.8km/h 3.0mph /  4.8km/h 83% 0.00in /  0mm
18:14 39.7 °F /  4.3 °C 35.0 °F /  1.7 °C 29.50in /  998.9hPa SE 1.0mph /  1.6km/h 4.0mph /  6.4km/h 83% 0.00in /  0mm
18:19 39.7 °F /  4.3 °C 35.0 °F /  1.7 °C 29.50in /  998.9hPa SE 1.0mph /  1.6km/h 4.0mph /  6.4km/h 83% 0.00in /  0mm
18:24 39.7 °F /  4.3 °C 35.3 °F /  1.8 °C 29.50in /  998.9hPa SSE 1.0mph /  1.6km/h 4.0mph /  6.4km/h 84% 0.00in /  0mm
18:29 39.6 °F /  4.2 °C 34.9 °F /  1.6 °C 29.49in /  998.5hPa SE 2.0mph /  3.2km/h 5.0mph /  8km/h 83% 0.00in /  0mm
18:34 39.6 °F /  4.2 °C 35.2 °F /  1.8 °C 29.49in /  998.5hPa SE 3.0mph /  4.8km/h 5.0mph /  8km/h 84% 0.00in /  0mm
18:39 39.6 °F /  4.2 °C 35.2 °F /  1.8 °C 29.49in /  998.5hPa SE 2.0mph /  3.2km/h 4.0mph /  6.4km/h 84% 0.00in /  0mm
18:44 39.7 °F /  4.3 °C 35.3 °F /  1.8 °C 29.50in /  998.9hPa Calm   4.0mph /  6.4km/h 84% 0.00in /  0mm
18:49 39.7 °F /  4.3 °C 35.3 °F /  1.8 °C 29.50in /  998.9hPa Calm   4.0mph /  6.4km/h 84% 0.00in /  0mm
18:54 39.6 °F /  4.2 °C 35.2 °F /  1.8 °C 29.50in /  998.9hPa Calm     84% 0.00in /  0mm
18:59 39.6 °F /  4.2 °C 35.2 °F /  1.8 °C 29.50in /  998.9hPa Calm   5.0mph /  8km/h 84% 0.00in /  0mm
19:04 39.7 °F /  4.3 °C 35.3 °F /  1.8 °C 29.50in /  998.9hPa SE 1.0mph /  1.6km/h 5.0mph /  8km/h 84% 0.00in /  0mm
19:09 39.7 °F /  4.3 °C 35.3 °F /  1.8 °C 29.50in /  998.9hPa SE 2.0mph /  3.2km/h 3.0mph /  4.8km/h 84% 0.00in /  0mm
19:14 39.8 °F /  4.3 °C 35.4 °F /  1.9 °C 29.50in /  998.9hPa SSE 2.0mph /  3.2km/h 4.0mph /  6.4km/h 84% 0.00in /  0mm
19:19 39.8 °F /  4.3 °C 35.4 °F /  1.9 °C 29.50in /  998.9hPa SSW 1.0mph /  1.6km/h 4.0mph /  6.4km/h 84% 0.00in /  0mm
19:24 39.8 °F /  4.3 °C 35.4 °F /  1.9 °C 29.50in /  998.9hPa South 2.0mph /  3.2km/h 5.0mph /  8km/h 84% 0.00in /  0mm
19:29 39.9 °F /  4.4 °C 35.5 °F /  1.9 °C 29.50in /  998.9hPa SSW 4.0mph /  6.4km/h 4.0mph /  6.4km/h 84% 0.00in /  0mm
19:34 39.9 °F /  4.4 °C 35.5 °F /  1.9 °C 29.49in /  998.5hPa South 3.0mph /  4.8km/h 5.0mph /  8km/h 84% 0.00in /  0mm
19:39 40.0 °F /  4.4 °C 35.6 °F /  2 °C 29.50in /  998.9hPa South 3.0mph /  4.8km/h 5.0mph /  8km/h 84% 0.00in /  0mm
19:44 40.1 °F /  4.5 °C 35.7 °F /  2.1 °C 29.49in /  998.5hPa South 4.0mph /  6.4km/h 5.0mph /  8km/h 84% 0.00in /  0mm
19:49 40.2 °F /  4.6 °C 35.8 °F /  2.1 °C 29.50in /  998.9hPa South 5.0mph /  8km/h 6.0mph /  9.7km/h 84% 0.00in /  0mm
19:54 40.3 °F /  4.6 °C 35.8 °F /  2.1 °C 29.50in /  998.9hPa South 3.0mph /  4.8km/h 7.0mph /  11.3km/h 84% 0.00in /  0mm
19:59 40.4 °F /  4.7 °C 35.9 °F /  2.2 °C 29.49in /  998.5hPa South 3.0mph /  4.8km/h 7.0mph /  11.3km/h 84% 0.00in /  0mm
20:04 40.4 °F /  4.7 °C 35.9 °F /  2.2 °C 29.49in /  998.5hPa South 2.0mph /  3.2km/h 5.0mph /  8km/h 84% 0.00in /  0mm
20:09 40.6 °F /  4.8 °C 36.1 °F /  2.3 °C 29.49in /  998.5hPa South 3.0mph /  4.8km/h 5.0mph /  8km/h 84% 0.00in /  0mm
20:14 40.6 °F /  4.8 °C 36.1 °F /  2.3 °C 29.48in /  998.2hPa South 4.0mph /  6.4km/h 6.0mph /  9.7km/h 84% 0.00in /  0mm
20:19 40.8 °F /  4.9 °C 36.6 °F /  2.6 °C 29.48in /  998.2hPa SSW 2.0mph /  3.2km/h 7.0mph /  11.3km/h 85% 0.00in /  0mm
20:24 41.0 °F /  5 °C 36.8 °F /  2.7 °C 29.48in /  998.2hPa SSW 3.0mph /  4.8km/h 7.0mph /  11.3km/h 85% 0.00in /  0mm
20:29 41.1 °F /  5.1 °C 36.9 °F /  2.7 °C 29.48in /  998.2hPa SSW 3.0mph /  4.8km/h 6.0mph /  9.7km/h 85% 0.00in /  0mm
20:34 41.2 °F /  5.1 °C 37.0 °F /  2.8 °C 29.48in /  998.2hPa SSW 2.0mph /  3.2km/h 5.0mph /  8km/h 85% 0.00in /  0mm
20:39 41.4 °F /  5.2 °C 37.2 °F /  2.9 °C 29.48in /  998.2hPa SW 3.0mph /  4.8km/h 4.0mph /  6.4km/h 85% 0.00in /  0mm
20:44 41.6 °F /  5.3 °C 37.4 °F /  3 °C 29.48in /  998.2hPa SW 2.0mph /  3.2km/h 3.0mph /  4.8km/h 85% 0.00in /  0mm
20:49 41.7 °F /  5.4 °C 37.8 °F /  3.2 °C 29.48in /  998.2hPa SW 1.0mph /  1.6km/h 4.0mph /  6.4km/h 86% 0.00in /  0mm
20:54 41.9 °F /  5.5 °C 38.3 °F /  3.5 °C 29.48in /  998.2hPa SW 3.0mph /  4.8km/h 7.0mph /  11.3km/h 87% 0.00in /  0mm
20:59 42.2 °F /  5.7 °C 38.9 °F /  3.8 °C 29.47in /  997.9hPa SW 3.0mph /  4.8km/h 7.0mph /  11.3km/h 88% 0.00in /  0mm
21:04 42.6 °F /  5.9 °C 39.3 °F /  4.1 °C 29.47in /  997.9hPa SW 6.0mph /  9.7km/h 7.0mph /  11.3km/h 88% 0.01in /  0.25mm
21:09 42.9 °F /  6.1 °C 39.9 °F /  4.4 °C 29.47in /  997.9hPa SW 2.0mph /  3.2km/h 8.0mph /  12.9km/h 89% 0.01in /  0.25mm
21:14 43.2 °F /  6.2 °C 40.2 °F /  4.6 °C 29.47in /  997.9hPa SW 4.0mph /  6.4km/h 9.0mph /  14.5km/h 89% 0.01in /  0.25mm
21:19 43.4 °F /  6.3 °C 40.4 °F /  4.7 °C 29.46in /  997.5hPa WSW 5.0mph /  8km/h 8.0mph /  12.9km/h 89% 0.01in /  0.25mm
21:24 43.6 °F /  6.4 °C 40.3 °F /  4.6 °C 29.47in /  997.9hPa SW 4.0mph /  6.4km/h 8.0mph /  12.9km/h 88% 0.01in /  0.25mm
21:29 43.8 °F /  6.6 °C 40.5 °F /  4.7 °C 29.46in /  997.5hPa SW 5.0mph /  8km/h 12.0mph /  19.3km/h 88% 0.01in /  0.25mm
21:34 44.2 °F /  6.8 °C 40.9 °F /  4.9 °C 29.46in /  997.5hPa SW 6.0mph /  9.7km/h 12.0mph /  19.3km/h 88% 0.01in /  0.25mm
21:39 44.5 °F /  6.9 °C 40.9 °F /  4.9 °C 29.46in /  997.5hPa SW 7.0mph /  11.3km/h 12.0mph /  19.3km/h 87% 0.01in /  0.25mm
21:44 44.8 °F /  7.1 °C 41.2 °F /  5.1 °C 29.46in /  997.5hPa WSW 8.0mph /  12.9km/h 15.0mph /  24.1km/h 87% 0.01in /  0.25mm
21:49 45.2 °F /  7.3 °C 41.3 °F /  5.2 °C 29.46in /  997.5hPa WSW 8.0mph /  12.9km/h 17.0mph /  27.4km/h 86% 0.01in /  0.25mm
21:54 45.5 °F /  7.5 °C 41.6 °F /  5.3 °C 29.45in /  997.2hPa WSW 9.0mph /  14.5km/h 16.0mph /  25.7km/h 86% 0.01in /  0.25mm
21:59 45.6 °F /  7.6 °C 41.4 °F /  5.2 °C 29.45in /  997.2hPa SSE 8.0mph /  12.9km/h 18.0mph /  29km/h 85% 0.01in /  0.25mm
22:04 45.6 °F /  7.6 °C 41.4 °F /  5.2 °C 29.45in /  997.2hPa WSW 4.0mph /  6.4km/h 14.0mph /  22.5km/h 85% 0.00in /  0mm
22:09 45.6 °F /  7.6 °C 41.4 °F /  5.2 °C 29.45in /  997.2hPa SW 5.0mph /  8km/h 13.0mph /  20.9km/h 85% 0.00in /  0mm
22:14 45.5 °F /  7.5 °C 41.3 °F /  5.2 °C 29.45in /  997.2hPa WSW 8.0mph /  12.9km/h 16.0mph /  25.7km/h 85% 0.00in /  0mm
22:19 45.6 °F /  7.6 °C 41.4 °F /  5.2 °C 29.45in /  997.2hPa SW 8.0mph /  12.9km/h 13.0mph /  20.9km/h 85% 0.00in /  0mm
22:24 45.6 °F /  7.6 °C 41.4 °F /  5.2 °C 29.45in /  997.2hPa SW 7.0mph /  11.3km/h 16.0mph /  25.7km/h 85% 0.00in /  0mm
22:29 45.7 °F /  7.6 °C 41.4 °F /  5.2 °C 29.45in /  997.2hPa WSW 8.0mph /  12.9km/h 16.0mph /  25.7km/h 85% 0.00in /  0mm
22:34 45.7 °F /  7.6 °C 41.4 °F /  5.2 °C 29.45in /  997.2hPa WSW 8.0mph /  12.9km/h 15.0mph /  24.1km/h 85% 0.00in /  0mm
22:39 45.8 °F /  7.7 °C 41.5 °F /  5.3 °C 29.44in /  996.8hPa WSW 8.0mph /  12.9km/h 15.0mph /  24.1km/h 85% 0.00in /  0mm
22:44 45.8 °F /  7.7 °C 41.5 °F /  5.3 °C 29.45in /  997.2hPa WSW 8.0mph /  12.9km/h 15.0mph /  24.1km/h 85% 0.00in /  0mm
22:49 45.9 °F /  7.7 °C 41.6 °F /  5.3 °C 29.44in /  996.8hPa WSW 8.0mph /  12.9km/h 16.0mph /  25.7km/h 85% 0.00in /  0mm
22:54 46.0 °F /  7.8 °C 41.7 °F /  5.4 °C 29.44in /  996.8hPa West 7.0mph /  11.3km/h 16.0mph /  25.7km/h 85% 0.00in /  0mm
22:59 46.2 °F /  7.9 °C 41.6 °F /  5.3 °C 29.44in /  996.8hPa West 11.0mph /  17.7km/h 17.0mph /  27.4km/h 84% 0.00in /  0mm
23:04 46.3 °F /  7.9 °C 41.7 °F /  5.4 °C 29.44in /  996.8hPa WSW 10.0mph /  16.1km/h 18.0mph /  29km/h 84% 0.00in /  0mm
23:09 46.3 °F /  7.9 °C 41.7 °F /  5.4 °C 29.44in /  996.8hPa WSW 10.0mph /  16.1km/h 18.0mph /  29km/h 84% 0.00in /  0mm
23:14 46.4 °F /  8 °C 41.5 °F /  5.3 °C 29.43in /  996.5hPa WSW 7.0mph /  11.3km/h 15.0mph /  24.1km/h 83% 0.00in /  0mm
23:19 46.5 °F /  8.1 °C 41.6 °F /  5.3 °C 29.43in /  996.5hPa SW 16.0mph /  25.7km/h 16.0mph /  25.7km/h 83% 0.00in /  0mm
23:24 46.6 °F /  8.1 °C 41.7 °F /  5.4 °C 29.43in /  996.5hPa West 10.0mph /  16.1km/h 19.0mph /  30.6km/h 83% 0.00in /  0mm
23:29 46.7 °F /  8.2 °C 41.8 °F /  5.4 °C 29.43in /  996.5hPa West 8.0mph /  12.9km/h 20.0mph /  32.2km/h 83% 0.00in /  0mm
23:34 46.7 °F /  8.2 °C 41.5 °F /  5.3 °C 29.43in /  996.5hPa WSW 10.0mph /  16.1km/h 21.0mph /  33.8km/h 82% 0.00in /  0mm
23:39 46.8 °F /  8.2 °C 41.6 °F /  5.3 °C 29.43in /  996.5hPa WSW 10.0mph /  16.1km/h 21.0mph /  33.8km/h 82% 0.00in /  0mm
23:44 47.0 °F /  8.3 °C 41.8 °F /  5.4 °C 29.43in /  996.5hPa WSW 9.0mph /  14.5km/h 17.0mph /  27.4km/h 82% 0.00in /  0mm
23:49 46.8 °F /  8.2 °C 41.3 °F /  5.2 °C 29.42in /  996.2hPa WSW 8.0mph /  12.9km/h 17.0mph /  27.4km/h 81% 0.00in /  0mm
23:54 46.3 °F /  7.9 °C 40.8 °F /  4.9 °C 29.42in /  996.2hPa SW 10.0mph /  16.1km/h 19.0mph /  30.6km/h 81% 0.00in /  0mm
23:59 45.8 °F /  7.7 °C 40.6 °F /  4.8 °C 29.42in /  996.2hPa WSW 8.0mph /  12.9km/h 15.0mph /  24.1km/h 82% 0.00in /  0mm
Buffalo, New York, USA
Compliments of Weather Underground - 2.5 mb